Truth Or Consequences Municipal Airport
KTCS : now visible

Airfield :











YOU CAN JOIN US ON...

 
LOGIN :

Register | Disclaimer

   EN    FR    IT 

 









Legend :    VFR   Marginal VFR   IFR   Intensive IFR   Very Intensive IFR
Visi :
Ceiling :
>= 8 km
>= 3000ft
5 to 8 km
1000 to 3000 ft
1500m to 5 km
500 to 1000 ft
800 to 1500m
200 to 500 ft
< 800m
< 200 ft
Symbols :   Thunderstorms  Fog  Heavy snow  Heavy precipitations  Wind > 20 kt







- Airport Elevation : 4853 ft


KTCS - Truth Or Consequences Municipal

CURRENT METAR :
  • 220153Z AUTO 19015G27KT 10SM -RA CLR 22/13 A3001 RMK AO2 PK WND 19027/0147 SLP090 P0000 T02170133 TSNO

EXPIRED METARs :
  • 220053Z AUTO 19018G23KT 10SM -RA CLR 23/12 A2999 RMK AO2 PK WND 18029/0028 SLP083 P0000 T02330122 TSNO
  • 212353Z AUTO 19022G29KT 10SM -RA FEW100 25/11 A2998 RMK AO2 PK WND 20033/2256 RAE2259B21 SLP077 P0000 60000 T02500111 10300 20250 55007 TSNO
  • 212253Z AUTO 19022G32KT 10SM -RA CLR 27/10 A2997 RMK AO2 PK WND 18032/2245 SLP069 P0000 T02670100 TSNO

TAF KTCS
Valid from the 22 at 00:00 until the 23 at 00:00 UTC


212335Z 2200/2224 20015G25KT P6SM SCT080 SCT200
FM220400 26007KT P6SM SCT200
FM221200 34005KT P6SM SCT200
FM221700 18008KT P6SM SCT080 SCT200
No reported NOTAMs for that airfield.



MET'MAP, your aeronautical weather chart ! - Copyright ORBIFLY December 2007 - Disclaimer

ORBIFLY MET'MAP TEAM :

Programming & Development : Alexandra Zaïnal
Concept & Development : Baudouin d'Aumeries
Co-Development & Prog : Marc-Olivier Méhu
Technical & hardware support : Manuel Goepfert

Contact : metmap@orbifly.com




SOURCES & CREDITS :

   NOAA       Earth
Advisory